createdAt,value
2023-02-14T00:00:04.411Z,27.20
2023-02-14T00:00:15.500Z,26.60
2023-02-14T00:00:26.452Z,26.20
2023-02-14T00:00:37.259Z,25.40
2023-02-14T00:00:48.340Z,26.20
2023-02-14T00:00:59.635Z,25.40
2023-02-14T00:01:09.957Z,25.70
2023-02-14T00:01:20.990Z,25.50
2023-02-14T00:01:32.044Z,26.70
2023-02-14T00:01:42.767Z,27.10
2023-02-14T00:01:53.806Z,26.20
2023-02-14T00:02:04.765Z,26.80
2023-02-14T00:02:15.548Z,27.50
2023-02-14T00:02:26.625Z,26.40
2023-02-14T00:02:37.617Z,25.70
2023-02-14T00:02:48.464Z,25.50
2023-02-14T00:02:59.139Z,25.80
2023-02-14T00:03:10.118Z,26.20
2023-02-14T00:03:20.885Z,26.00
2023-02-14T00:03:31.946Z,26.40
2023-02-14T00:03:42.910Z,29.10
2023-02-14T00:03:53.695Z,28.50
2023-02-14T00:04:04.750Z,28.10
2023-02-14T00:04:15.770Z,28.90
2023-02-14T00:04:26.626Z,32.10
2023-02-14T00:04:37.147Z,31.70
2023-02-14T00:04:48.151Z,29.60
2023-02-14T00:04:58.952Z,27.70
2023-02-14T00:05:09.464Z,26.20
2023-02-14T00:05:20.457Z,25.80
2023-02-14T00:05:31.207Z,26.70
2023-02-14T00:05:42.252Z,28.30
2023-02-14T00:05:53.217Z,28.10
2023-02-14T00:06:04.023Z,27.70
2023-02-14T00:06:15.091Z,26.60
2023-02-14T00:06:26.033Z,25.80
2023-02-14T00:06:36.834Z,26.40
2023-02-14T00:06:47.866Z,27.60
2023-02-14T00:06:58.840Z,27.20
2023-02-14T00:07:09.600Z,27.60
2023-02-14T00:07:20.648Z,28.10
2023-02-14T00:07:31.616Z,29.00
2023-02-14T00:07:42.381Z,25.50
2023-02-14T00:07:53.453Z,26.40
2023-02-14T00:08:04.429Z,27.20
2023-02-14T00:08:15.186Z,32.20
2023-02-14T00:08:26.260Z,33.00
2023-02-14T00:08:37.229Z,32.20
2023-02-14T00:08:48.010Z,27.10
2023-02-14T00:08:59.052Z,26.50
2023-02-14T00:09:10.022Z,25.70
2023-02-14T00:09:20.816Z,26.00
2023-02-14T00:09:31.844Z,26.70
2023-02-14T00:09:42.847Z,26.50
2023-02-14T00:09:53.612Z,26.70
2023-02-14T00:10:04.658Z,26.70
2023-02-14T00:10:15.635Z,27.50
2023-02-14T00:10:26.397Z,26.90
2023-02-14T00:10:37.443Z,26.00
2023-02-14T00:10:48.406Z,25.60
2023-02-14T00:10:59.405Z,27.50
2023-02-14T00:11:10.045Z,28.50
2023-02-14T00:11:21.007Z,28.80
2023-02-14T00:11:31.791Z,29.10
2023-02-14T00:11:42.818Z,30.10
2023-02-14T00:11:53.804Z,30.60
2023-02-14T00:12:04.571Z,30.30
2023-02-14T00:12:15.629Z,43.00
2023-02-14T00:12:26.599Z,55.10
2023-02-14T00:12:37.366Z,60.70
2023-02-14T00:12:48.412Z,48.30
2023-02-14T00:12:59.414Z,36.20
2023-02-14T00:13:10.156Z,29.10
2023-02-14T00:13:21.219Z,27.70
2023-02-14T00:13:32.162Z,26.50
2023-02-14T00:13:42.940Z,25.90
2023-02-14T00:13:54.042Z,26.30
2023-02-14T00:14:05.002Z,28.30
2023-02-14T00:14:15.767Z,28.10
2023-02-14T00:14:26.835Z,27.80
2023-02-14T00:14:37.819Z,28.50
2023-02-14T00:14:48.573Z,29.60
2023-02-14T00:14:59.627Z,29.50
2023-02-14T00:15:10.598Z,31.80
2023-02-14T00:15:21.375Z,38.40
2023-02-14T00:15:32.424Z,47.10
2023-02-14T00:15:43.441Z,44.30
2023-02-14T00:15:54.201Z,36.80
2023-02-14T00:16:05.267Z,30.00
2023-02-14T00:16:16.293Z,29.20
2023-02-14T00:16:27.142Z,29.90
2023-02-14T00:16:37.624Z,29.70
2023-02-14T00:16:48.586Z,29.40
2023-02-14T00:16:59.391Z,28.50
2023-02-14T00:17:10.424Z,30.80
2023-02-14T00:17:21.391Z,29.50
2023-02-14T00:17:32.141Z,28.40
2023-02-14T00:17:43.336Z,29.80
2023-02-14T00:17:54.254Z,31.00
2023-02-14T00:18:05.041Z,30.60
2023-02-14T00:18:16.905Z,27.80
2023-02-14T00:18:26.680Z,27.50
2023-02-14T00:18:37.495Z,27.20
2023-02-14T00:18:48.533Z,27.90
2023-02-14T00:18:59.537Z,27.90
2023-02-14T00:19:10.282Z,28.40
2023-02-14T00:19:21.329Z,27.40
2023-02-14T00:19:32.299Z,27.10
2023-02-14T00:19:43.075Z,26.20
2023-02-14T00:19:54.120Z,27.30
2023-02-14T00:20:05.093Z,31.70
2023-02-14T00:20:15.855Z,32.70
2023-02-14T00:20:26.905Z,30.10
2023-02-14T00:20:37.915Z,27.60
2023-02-14T00:20:48.668Z,27.20
2023-02-14T00:20:59.988Z,30.20
2023-02-14T00:21:10.540Z,36.60
2023-02-14T00:21:21.309Z,45.60
2023-02-14T00:21:32.356Z,53.50
2023-02-14T00:21:43.342Z,56.40
2023-02-14T00:21:54.097Z,57.10
2023-02-14T00:22:05.145Z,50.00
2023-02-14T00:22:16.118Z,43.20
2023-02-14T00:22:26.881Z,37.70
2023-02-14T00:22:37.944Z,41.80
2023-02-14T00:22:48.916Z,50.80
2023-02-14T00:22:59.689Z,59.00
2023-02-14T00:23:10.735Z,58.70
2023-02-14T00:23:21.747Z,45.10
2023-02-14T00:23:32.498Z,31.20
2023-02-14T00:23:43.552Z,29.40
2023-02-14T00:23:54.540Z,31.30
2023-02-14T00:24:05.339Z,30.80
2023-02-14T00:24:16.394Z,30.70
2023-02-14T00:24:27.333Z,34.30
2023-02-14T00:24:38.122Z,33.00
2023-02-14T00:24:49.180Z,31.40
2023-02-14T00:25:00.164Z,29.70
2023-02-14T00:25:10.931Z,30.20
2023-02-14T00:25:22.006Z,29.60
2023-02-14T00:25:32.939Z,31.60
2023-02-14T00:25:43.704Z,41.40
2023-02-14T00:25:54.752Z,51.70
2023-02-14T00:26:05.805Z,52.00
2023-02-14T00:26:16.565Z,44.90
2023-02-14T00:26:27.609Z,31.60
2023-02-14T00:26:38.628Z,27.30
2023-02-14T00:26:49.433Z,29.10
2023-02-14T00:26:59.942Z,29.50
2023-02-14T00:27:10.923Z,28.90
2023-02-14T00:27:21.677Z,29.50
2023-02-14T00:27:32.721Z,29.20
2023-02-14T00:27:43.686Z,30.10
2023-02-14T00:27:54.452Z,28.80
2023-02-14T00:28:05.491Z,28.50
2023-02-14T00:28:16.473Z,29.10
2023-02-14T00:28:27.249Z,29.40
2023-02-14T00:28:38.272Z,28.40
2023-02-14T00:28:49.243Z,26.50
2023-02-14T00:29:00.008Z,25.30
2023-02-14T00:29:11.064Z,25.80
2023-02-14T00:29:22.034Z,27.50
2023-02-14T00:29:32.799Z,29.90
2023-02-14T00:29:43.858Z,32.80
2023-02-14T00:29:54.912Z,32.00
2023-02-14T00:30:05.652Z,30.20
2023-02-14T00:30:16.741Z,27.40
2023-02-14T00:30:27.755Z,26.30
2023-02-14T00:30:38.659Z,25.80
2023-02-14T00:30:49.273Z,26.50
2023-02-14T00:31:00.727Z,30.30
2023-02-14T00:31:11.277Z,44.10
2023-02-14T00:31:21.910Z,51.20
2023-02-14T00:31:33.007Z,49.80
2023-02-14T00:31:43.767Z,37.20
2023-02-14T00:31:54.898Z,37.50
2023-02-14T00:32:05.450Z,38.70
2023-02-14T00:32:16.201Z,34.10
2023-02-14T00:32:27.230Z,30.10
2023-02-14T00:32:38.217Z,29.00
2023-02-14T00:32:48.986Z,27.90
2023-02-14T00:33:00.062Z,28.40
2023-02-14T00:33:11.008Z,25.90
2023-02-14T00:33:21.810Z,26.20
2023-02-14T00:33:32.859Z,25.60
2023-02-14T00:33:43.828Z,26.40
2023-02-14T00:33:54.609Z,26.40
2023-02-14T00:34:05.671Z,31.30
2023-02-14T00:34:16.615Z,33.30
2023-02-14T00:34:27.380Z,33.80
2023-02-14T00:34:38.476Z,27.40
2023-02-14T00:34:49.415Z,26.90
2023-02-14T00:35:00.176Z,30.00
2023-02-14T00:35:11.222Z,29.50
2023-02-14T00:35:22.182Z,26.80
2023-02-14T00:35:32.952Z,28.50
2023-02-14T00:35:43.995Z,28.20
2023-02-14T00:35:54.981Z,27.30
2023-02-14T00:36:05.727Z,24.70
2023-02-14T00:36:16.780Z,24.70
2023-02-14T00:36:27.757Z,27.90
2023-02-14T00:36:38.578Z,28.00
2023-02-14T00:36:49.592Z,27.80
2023-02-14T00:37:00.580Z,25.60
2023-02-14T00:37:11.334Z,25.10
2023-02-14T00:37:22.392Z,25.00
2023-02-14T00:37:33.370Z,24.80
2023-02-14T00:37:44.136Z,24.70
2023-02-14T00:37:55.194Z,25.70
2023-02-14T00:38:06.203Z,25.90
2023-02-14T00:38:16.916Z,26.60
2023-02-14T00:38:27.995Z,37.30
2023-02-14T00:38:38.976Z,42.70
2023-02-14T00:38:49.724Z,44.80
2023-02-14T00:39:00.779Z,38.30
2023-02-14T00:39:11.734Z,32.70
2023-02-14T00:39:22.537Z,28.30
2023-02-14T00:39:33.565Z,28.80
2023-02-14T00:39:44.528Z,29.20
2023-02-14T00:39:55.310Z,31.90
2023-02-14T00:40:06.368Z,33.50
2023-02-14T00:40:17.321Z,33.20
2023-02-14T00:40:28.092Z,29.40
2023-02-14T00:40:39.178Z,31.20
2023-02-14T00:40:50.113Z,38.10
2023-02-14T00:41:01.171Z,42.80
2023-02-14T00:41:11.744Z,34.90
2023-02-14T00:41:22.719Z,30.30
2023-02-14T00:41:33.461Z,23.60
2023-02-14T00:41:44.508Z,24.70
2023-02-14T00:41:55.496Z,25.40
2023-02-14T00:42:06.243Z,24.90
2023-02-14T00:42:17.280Z,25.10
2023-02-14T00:42:28.258Z,24.40
2023-02-14T00:42:39.033Z,24.20
2023-02-14T00:42:50.090Z,24.10
2023-02-14T00:43:01.065Z,24.80
2023-02-14T00:43:11.829Z,25.10
2023-02-14T00:43:22.874Z,24.80
2023-02-14T00:43:33.861Z,24.40
2023-02-14T00:43:44.605Z,24.80
2023-02-14T00:43:55.659Z,25.80
2023-02-14T00:44:06.620Z,31.80
2023-02-14T00:44:17.392Z,39.70
2023-02-14T00:44:28.444Z,41.00
2023-02-14T00:44:39.446Z,36.20
2023-02-14T00:44:50.191Z,31.10
2023-02-14T00:45:01.260Z,74.50
2023-02-14T00:45:12.233Z,83.70
2023-02-14T00:45:22.985Z,99.40
2023-02-14T00:45:34.101Z,67.90
2023-02-14T00:45:45.070Z,68.40
2023-02-14T00:45:55.911Z,90.00
2023-02-14T00:46:06.476Z,86.30
2023-02-14T00:46:17.503Z,71.40
2023-02-14T00:46:28.326Z,56.50
2023-02-14T00:46:39.370Z,46.00
2023-02-14T00:46:50.332Z,37.50
2023-02-14T00:47:01.110Z,26.30
2023-02-14T00:47:12.147Z,27.90
2023-02-14T00:47:23.145Z,39.20
2023-02-14T00:47:33.911Z,63.90
2023-02-14T00:47:44.956Z,74.10
2023-02-14T00:47:55.982Z,59.70
2023-02-14T00:48:06.723Z,64.40
2023-02-14T00:48:17.791Z,79.20
2023-02-14T00:48:28.742Z,80.20
2023-02-14T00:48:39.511Z,62.20
2023-02-14T00:48:50.562Z,59.10
2023-02-14T00:49:01.538Z,64.10
2023-02-14T00:49:12.359Z,54.70
2023-02-14T00:49:22.857Z,50.80
2023-02-14T00:49:33.859Z,49.60
2023-02-14T00:49:44.611Z,42.20
2023-02-14T00:49:55.676Z,34.50
2023-02-14T00:50:06.683Z,50.00
2023-02-14T00:50:17.442Z,58.70
2023-02-14T00:50:28.486Z,60.40
2023-02-14T00:50:39.463Z,48.00
2023-02-14T00:50:50.215Z,45.20
2023-02-14T00:51:01.484Z,40.40
2023-02-14T00:51:11.948Z,32.60
2023-02-14T00:51:22.729Z,34.50
2023-02-14T00:51:33.775Z,38.80
2023-02-14T00:51:44.754Z,41.70
2023-02-14T00:51:55.505Z,38.00
2023-02-14T00:52:06.552Z,30.10
2023-02-14T00:52:17.562Z,27.30
2023-02-14T00:52:28.322Z,26.70
2023-02-14T00:52:39.364Z,27.90
2023-02-14T00:52:50.345Z,28.00
2023-02-14T00:53:01.120Z,28.20
2023-02-14T00:53:12.168Z,26.50
2023-02-14T00:53:23.132Z,26.20
2023-02-14T00:53:33.900Z,25.10
2023-02-14T00:53:44.949Z,24.90
2023-02-14T00:53:55.908Z,25.80
2023-02-14T00:54:06.717Z,27.70
2023-02-14T00:54:17.750Z,28.30
2023-02-14T00:54:28.712Z,27.20
2023-02-14T00:54:39.505Z,29.00
2023-02-14T00:54:50.545Z,35.90
2023-02-14T00:55:01.516Z,50.80
2023-02-14T00:55:12.347Z,58.20
2023-02-14T00:55:22.833Z,59.80
2023-02-14T00:55:33.815Z,48.20
2023-02-14T00:55:44.587Z,38.30
2023-02-14T00:55:55.623Z,35.40
2023-02-14T00:56:06.607Z,32.90
2023-02-14T00:56:17.353Z,33.20
2023-02-14T00:56:28.419Z,32.50
2023-02-14T00:56:39.374Z,41.00
2023-02-14T00:56:50.157Z,47.70
2023-02-14T00:57:01.181Z,41.00
2023-02-14T00:57:12.163Z,43.50
2023-02-14T00:57:22.919Z,41.40
2023-02-14T00:57:34.007Z,49.10
2023-02-14T00:57:44.951Z,45.90
2023-02-14T00:57:55.724Z,42.90
2023-02-14T00:58:06.776Z,48.40
2023-02-14T00:58:17.743Z,58.80
2023-02-14T00:58:28.513Z,62.20
2023-02-14T00:58:39.558Z,44.30
2023-02-14T00:58:50.527Z,38.10
2023-02-14T00:59:01.306Z,47.50
2023-02-14T00:59:12.341Z,47.00
2023-02-14T00:59:23.315Z,42.70
2023-02-14T00:59:34.100Z,41.00
2023-02-14T00:59:45.157Z,49.80
2023-02-14T00:59:56.113Z,51.30
2023-02-14T01:00:06.878Z,33.10
2023-02-14T01:00:17.933Z,30.30
2023-02-14T01:00:29.040Z,29.80
2023-02-14T01:00:39.922Z,33.60
2023-02-14T01:00:50.404Z,31.10
2023-02-14T01:01:01.804Z,29.30
2023-02-14T01:01:12.285Z,26.60
2023-02-14T01:01:22.892Z,28.10
2023-02-14T01:01:33.843Z,28.90
2023-02-14T01:01:44.607Z,28.80
2023-02-14T01:01:55.653Z,27.60
2023-02-14T01:02:06.666Z,36.20
2023-02-14T01:02:17.438Z,38.60
2023-02-14T01:02:28.477Z,36.90
2023-02-14T01:02:39.503Z,30.10
2023-02-14T01:02:50.374Z,28.40
2023-02-14T01:03:00.884Z,29.70
2023-02-14T01:03:11.847Z,31.70
2023-02-14T01:03:22.629Z,37.00
2023-02-14T01:03:33.680Z,37.90
2023-02-14T01:03:44.693Z,35.60
2023-02-14T01:03:55.394Z,34.40
2023-02-14T01:04:06.444Z,31.30
2023-02-14T01:04:17.458Z,27.70
2023-02-14T01:04:28.185Z,28.70
2023-02-14T01:04:39.243Z,26.70
2023-02-14T01:04:50.232Z,27.60
2023-02-14T01:05:00.989Z,27.10
2023-02-14T01:05:12.047Z,33.00
2023-02-14T01:05:23.036Z,35.30
2023-02-14T01:05:33.832Z,36.00
2023-02-14T01:05:44.851Z,30.60
2023-02-14T01:05:55.824Z,29.30
2023-02-14T01:06:06.583Z,31.30
2023-02-14T01:06:17.653Z,38.10
2023-02-14T01:06:28.603Z,36.40
2023-02-14T01:06:39.410Z,34.00
2023-02-14T01:06:50.430Z,28.10
2023-02-14T01:07:01.408Z,29.20
2023-02-14T01:07:12.184Z,30.10
2023-02-14T01:07:23.248Z,37.40
2023-02-14T01:07:34.199Z,39.30
2023-02-14T01:07:44.960Z,36.20
2023-02-14T01:07:56.022Z,31.90
2023-02-14T01:08:06.986Z,35.50
2023-02-14T01:08:17.786Z,41.00
2023-02-14T01:08:28.292Z,43.30
2023-02-14T01:08:39.331Z,34.50
2023-02-14T01:08:50.087Z,40.20
2023-02-14T01:09:01.125Z,41.30
2023-02-14T01:09:12.093Z,39.20
2023-02-14T01:09:22.854Z,30.00
2023-02-14T01:09:33.921Z,31.50
2023-02-14T01:09:44.884Z,35.20
2023-02-14T01:09:55.695Z,39.10
2023-02-14T01:10:06.228Z,34.10
2023-02-14T01:10:17.198Z,29.30
2023-02-14T01:10:27.985Z,31.60
2023-02-14T01:10:39.040Z,37.00
2023-02-14T01:10:50.000Z,39.30
2023-02-14T01:11:01.263Z,35.90
2023-02-14T01:11:11.512Z,30.80
2023-02-14T01:11:22.475Z,28.20
2023-02-14T01:11:33.231Z,25.90
2023-02-14T01:11:44.281Z,27.60
2023-02-14T01:11:55.247Z,30.70
2023-02-14T01:12:06.029Z,31.60
2023-02-14T01:12:17.061Z,31.50
2023-02-14T01:12:28.029Z,35.00
2023-02-14T01:12:38.800Z,40.60
2023-02-14T01:12:49.852Z,42.70
2023-02-14T01:13:00.830Z,46.50
2023-02-14T01:13:11.590Z,44.30
2023-02-14T01:13:22.640Z,47.80
2023-02-14T01:13:33.609Z,44.70
2023-02-14T01:13:44.384Z,40.60
2023-02-14T01:13:55.424Z,36.60
2023-02-14T01:14:06.404Z,40.60
2023-02-14T01:14:17.158Z,36.70
2023-02-14T01:14:28.219Z,32.00
2023-02-14T01:14:39.192Z,26.70
2023-02-14T01:14:49.935Z,27.30
2023-02-14T01:15:01.013Z,36.20
2023-02-14T01:15:11.960Z,39.90
2023-02-14T01:15:22.734Z,38.00
2023-02-14T01:15:33.815Z,36.50
2023-02-14T01:15:44.775Z,35.20
2023-02-14T01:15:55.556Z,34.30
2023-02-14T01:16:06.665Z,34.80
2023-02-14T01:16:17.654Z,30.60
2023-02-14T01:16:28.521Z,30.10
2023-02-14T01:16:39.189Z,32.00
2023-02-14T01:16:50.219Z,35.70
2023-02-14T01:17:00.984Z,33.60
2023-02-14T01:17:12.041Z,27.40
2023-02-14T01:17:22.998Z,25.10
2023-02-14T01:17:33.802Z,25.40
2023-02-14T01:17:44.819Z,25.50
2023-02-14T01:17:55.793Z,26.40
2023-02-14T01:18:06.553Z,26.60
2023-02-14T01:18:17.631Z,25.60
2023-02-14T01:18:28.603Z,25.20
2023-02-14T01:18:39.484Z,24.40
2023-02-14T01:18:49.944Z,25.00
2023-02-14T01:19:00.930Z,23.70
2023-02-14T01:19:11.662Z,24.30
2023-02-14T01:19:22.235Z,24.40
2023-02-14T01:19:33.182Z,25.50
2023-02-14T01:19:43.941Z,25.20
2023-02-14T01:19:55.003Z,25.50
2023-02-14T01:20:05.977Z,25.80
2023-02-14T01:20:16.747Z,24.90
2023-02-14T01:20:27.789Z,24.10
2023-02-14T01:20:38.774Z,24.10
2023-02-14T01:20:49.552Z,24.70
2023-02-14T01:21:00.921Z,24.80
2023-02-14T01:21:11.473Z,25.70
2023-02-14T01:21:22.247Z,25.10
2023-02-14T01:21:33.287Z,24.10
2023-02-14T01:21:44.265Z,23.40
2023-02-14T01:21:55.034Z,24.00
2023-02-14T01:22:06.080Z,25.20
2023-02-14T01:22:17.041Z,24.50
2023-02-14T01:22:27.831Z,25.90
2023-02-14T01:22:38.888Z,26.80
2023-02-14T01:22:49.857Z,28.20
2023-02-14T01:23:00.617Z,26.60
2023-02-14T01:23:11.664Z,25.60
2023-02-14T01:23:22.640Z,24.70
2023-02-14T01:23:33.397Z,24.30
2023-02-14T01:23:44.446Z,24.70
2023-02-14T01:23:55.426Z,24.80
2023-02-14T01:24:06.219Z,26.20
2023-02-14T01:24:17.270Z,34.70
2023-02-14T01:24:28.198Z,36.70
2023-02-14T01:24:38.962Z,41.30
2023-02-14T01:24:50.012Z,40.40
2023-02-14T01:25:00.973Z,48.90
2023-02-14T01:25:11.774Z,47.70
2023-02-14T01:25:22.798Z,43.50
2023-02-14T01:25:33.779Z,35.90
2023-02-14T01:25:44.617Z,28.90
2023-02-14T01:25:55.108Z,26.30
2023-02-14T01:26:06.066Z,25.40
2023-02-14T01:26:16.843Z,25.50
2023-02-14T01:26:27.885Z,26.20
2023-02-14T01:26:38.847Z,26.00
2023-02-14T01:26:49.612Z,25.40
2023-02-14T01:27:00.658Z,24.60
2023-02-14T01:27:11.653Z,25.30
2023-02-14T01:27:22.434Z,25.90
2023-02-14T01:27:33.484Z,25.30
2023-02-14T01:27:44.446Z,24.10
2023-02-14T01:27:55.236Z,24.60
2023-02-14T01:28:06.271Z,25.10
2023-02-14T01:28:17.251Z,26.10
2023-02-14T01:28:28.003Z,25.50
2023-02-14T01:28:39.052Z,24.70
2023-02-14T01:28:50.041Z,29.70
2023-02-14T01:29:00.788Z,34.50
2023-02-14T01:29:11.832Z,34.70
2023-02-14T01:29:22.808Z,27.50
2023-02-14T01:29:33.574Z,24.40
2023-02-14T01:29:44.618Z,24.90
2023-02-14T01:29:55.673Z,26.30
2023-02-14T01:30:06.478Z,27.10
2023-02-14T01:30:17.559Z,26.70
2023-02-14T01:30:28.542Z,26.30
2023-02-14T01:30:39.357Z,26.70
2023-02-14T01:30:49.919Z,27.40
2023-02-14T01:31:01.254Z,27.20
2023-02-14T01:31:11.678Z,27.30
2023-02-14T01:31:22.324Z,26.70
2023-02-14T01:31:32.917Z,25.70
2023-02-14T01:31:43.801Z,25.30
2023-02-14T01:31:54.355Z,25.60
2023-02-14T01:32:05.361Z,25.80
2023-02-14T01:32:16.194Z,25.90
2023-02-14T01:32:26.662Z,26.10
2023-02-14T01:32:37.627Z,26.90
2023-02-14T01:32:48.407Z,26.10
2023-02-14T01:32:59.453Z,24.90
2023-02-14T01:33:10.420Z,24.70
2023-02-14T01:33:21.181Z,25.00
2023-02-14T01:33:32.235Z,27.50
2023-02-14T01:33:43.198Z,29.30
2023-02-14T01:33:53.986Z,28.50
2023-02-14T01:34:05.035Z,26.10
2023-02-14T01:34:16.016Z,25.30
2023-02-14T01:34:26.800Z,25.90
2023-02-14T01:34:37.830Z,24.90
2023-02-14T01:34:48.786Z,25.00
2023-02-14T01:34:59.579Z,24.30
2023-02-14T01:35:10.617Z,24.80
2023-02-14T01:35:21.599Z,24.60
2023-02-14T01:35:32.365Z,24.90
2023-02-14T01:35:43.449Z,25.40
2023-02-14T01:35:54.393Z,25.60
2023-02-14T01:36:05.171Z,24.80
2023-02-14T01:36:16.206Z,26.00
2023-02-14T01:36:27.176Z,26.90
2023-02-14T01:36:37.986Z,26.20
2023-02-14T01:36:48.493Z,25.90
2023-02-14T01:36:59.455Z,24.20
2023-02-14T01:37:10.219Z,24.60
2023-02-14T01:37:21.273Z,24.10
2023-02-14T01:37:32.250Z,26.40
2023-02-14T01:37:43.008Z,26.10
2023-02-14T01:37:54.049Z,26.90
2023-02-14T01:38:05.020Z,25.40
2023-02-14T01:38:15.795Z,25.40
2023-02-14T01:38:26.847Z,24.50
2023-02-14T01:38:37.809Z,24.20
2023-02-14T01:38:48.586Z,24.40
2023-02-14T01:38:59.692Z,24.20
2023-02-14T01:39:10.637Z,24.20
2023-02-14T01:39:21.393Z,24.10
2023-02-14T01:39:32.446Z,24.50
2023-02-14T01:39:43.408Z,26.10
2023-02-14T01:39:54.175Z,26.50
2023-02-14T01:40:05.259Z,28.80
2023-02-14T01:40:16.243Z,29.40
2023-02-14T01:40:26.996Z,29.30
2023-02-14T01:40:38.049Z,27.90
2023-02-14T01:40:49.012Z,25.80
2023-02-14T01:41:00.181Z,26.40
2023-02-14T01:41:10.772Z,33.10
2023-02-14T01:41:21.751Z,45.50
2023-02-14T01:41:32.525Z,57.10
2023-02-14T01:41:43.581Z,54.20
2023-02-14T01:41:54.537Z,55.40
2023-02-14T01:42:05.321Z,57.60
2023-02-14T01:42:16.377Z,60.10
2023-02-14T01:42:27.338Z,42.90
2023-02-14T01:42:38.124Z,32.90
2023-02-14T01:42:49.153Z,33.80
2023-02-14T01:43:00.122Z,37.00
2023-02-14T01:43:10.887Z,36.30
2023-02-14T01:43:21.949Z,28.90
2023-02-14T01:43:32.910Z,26.20
2023-02-14T01:43:43.667Z,25.90
2023-02-14T01:43:54.740Z,26.70
2023-02-14T01:44:05.763Z,28.60
2023-02-14T01:44:16.487Z,29.40
2023-02-14T01:44:27.532Z,27.20
2023-02-14T01:44:38.516Z,26.30
2023-02-14T01:44:49.279Z,26.10
2023-02-14T01:45:00.349Z,25.40
2023-02-14T01:45:11.294Z,25.80
2023-02-14T01:45:22.060Z,27.10
2023-02-14T01:45:33.149Z,27.50
2023-02-14T01:45:44.100Z,27.00
2023-02-14T01:45:54.909Z,26.90
2023-02-14T01:46:05.956Z,25.50
2023-02-14T01:46:16.964Z,26.60
2023-02-14T01:46:27.671Z,36.90
2023-02-14T01:46:38.727Z,56.40
2023-02-14T01:46:49.697Z,58.20
2023-02-14T01:47:00.454Z,35.60
2023-02-14T01:47:11.509Z,28.40
2023-02-14T01:47:22.480Z,25.70
2023-02-14T01:47:33.245Z,26.40
2023-02-14T01:47:44.292Z,25.60
2023-02-14T01:47:55.259Z,25.90
2023-02-14T01:48:06.039Z,26.60
2023-02-14T01:48:17.137Z,26.60
2023-02-14T01:48:28.065Z,23.20
2023-02-14T01:48:38.830Z,22.50
2023-02-14T01:48:49.885Z,22.80
2023-02-14T01:49:00.865Z,23.20
2023-02-14T01:49:11.623Z,24.10
2023-02-14T01:49:22.676Z,28.10
2023-02-14T01:49:33.668Z,31.80
2023-02-14T01:49:44.407Z,46.40
2023-02-14T01:49:55.460Z,61.10
2023-02-14T01:50:06.428Z,72.80
2023-02-14T01:50:17.200Z,70.30
2023-02-14T01:50:28.231Z,59.00
2023-02-14T01:50:39.237Z,45.10
2023-02-14T01:50:49.998Z,35.90
2023-02-14T01:51:01.445Z,28.00
2023-02-14T01:51:12.026Z,25.00
2023-02-14T01:51:22.792Z,23.10
2023-02-14T01:51:33.842Z,23.70
2023-02-14T01:51:44.806Z,30.90
2023-02-14T01:51:55.575Z,34.10
2023-02-14T01:52:06.645Z,35.10
2023-02-14T01:52:17.604Z,29.60
2023-02-14T01:52:28.360Z,33.30
2023-02-14T01:52:39.457Z,42.20
2023-02-14T01:52:50.377Z,46.40
2023-02-14T01:53:01.152Z,57.50
2023-02-14T01:53:11.691Z,55.80
2023-02-14T01:53:22.682Z,43.40
2023-02-14T01:53:33.447Z,34.40
2023-02-14T01:53:44.514Z,25.60
2023-02-14T01:53:55.505Z,23.70
2023-02-14T01:54:06.256Z,24.00
2023-02-14T01:54:17.314Z,32.40
2023-02-14T01:54:28.267Z,42.60
2023-02-14T01:54:39.041Z,49.20
2023-02-14T01:54:50.088Z,38.90
2023-02-14T01:55:01.078Z,28.60
2023-02-14T01:55:11.840Z,25.60
2023-02-14T01:55:22.882Z,24.10
2023-02-14T01:55:33.863Z,24.40
2023-02-14T01:55:44.627Z,28.50
2023-02-14T01:55:55.684Z,29.10
2023-02-14T01:56:06.710Z,30.60
2023-02-14T01:56:17.450Z,27.60
2023-02-14T01:56:28.491Z,25.20
2023-02-14T01:56:39.517Z,24.70
2023-02-14T01:56:50.230Z,24.90
2023-02-14T01:57:01.281Z,25.60
2023-02-14T01:57:12.246Z,26.60
2023-02-14T01:57:23.013Z,27.40
2023-02-14T01:57:34.070Z,27.20
2023-02-14T01:57:45.052Z,26.50
2023-02-14T01:57:55.825Z,27.70
2023-02-14T01:58:06.864Z,27.20
2023-02-14T01:58:17.829Z,26.00
2023-02-14T01:58:28.614Z,26.70
2023-02-14T01:58:39.648Z,31.70
2023-02-14T01:58:50.617Z,32.50
2023-02-14T01:59:01.383Z,29.40
2023-02-14T01:59:12.432Z,26.50
2023-02-14T01:59:23.403Z,24.60
2023-02-14T01:59:34.164Z,24.10
2023-02-14T01:59:45.234Z,37.90
2023-02-14T01:59:56.231Z,61.50
2023-02-14T02:00:06.981Z,69.30
2023-02-14T02:00:18.034Z,65.60
2023-02-14T02:00:29.008Z,59.60
2023-02-14T02:00:39.806Z,52.40
2023-02-14T02:00:50.855Z,40.00
2023-02-14T02:01:02.413Z,31.60
2023-02-14T02:01:12.702Z,30.80
2023-02-14T02:01:23.891Z,31.40
2023-02-14T02:01:34.333Z,33.90
2023-02-14T02:01:45.107Z,34.10
2023-02-14T02:01:56.163Z,35.70
2023-02-14T02:02:07.110Z,36.50
2023-02-14T02:02:17.936Z,32.80
2023-02-14T02:02:28.488Z,26.10
2023-02-14T02:02:39.595Z,27.10
2023-02-14T02:02:50.416Z,27.50
2023-02-14T02:03:01.460Z,31.30
2023-02-14T02:03:12.439Z,33.10
2023-02-14T02:03:23.179Z,37.50
2023-02-14T02:03:34.246Z,48.20
2023-02-14T02:03:45.197Z,49.60
2023-02-14T02:03:55.993Z,43.40
2023-02-14T02:04:07.010Z,35.30
2023-02-14T02:04:17.992Z,31.80
2023-02-14T02:04:28.776Z,29.90
2023-02-14T02:04:39.837Z,25.90
2023-02-14T02:04:50.785Z,26.40
2023-02-14T02:05:01.565Z,26.80
2023-02-14T02:05:12.590Z,29.50
2023-02-14T02:05:23.588Z,43.00
2023-02-14T02:05:34.318Z,48.70
2023-02-14T02:05:45.359Z,42.70
2023-02-14T02:05:56.340Z,25.80
2023-02-14T02:06:07.123Z,26.50
2023-02-14T02:06:18.204Z,27.20
2023-02-14T02:06:29.172Z,26.50
2023-02-14T02:06:39.933Z,25.90
2023-02-14T02:06:50.991Z,28.30
2023-02-14T02:07:01.947Z,27.80
2023-02-14T02:07:12.729Z,26.90
2023-02-14T02:07:23.811Z,28.70
2023-02-14T02:07:34.762Z,57.20
2023-02-14T02:07:45.552Z,60.40
2023-02-14T02:07:56.618Z,51.10
2023-02-14T02:08:07.576Z,30.60
2023-02-14T02:08:18.366Z,26.60
2023-02-14T02:08:29.394Z,26.20
2023-02-14T02:08:40.364Z,28.20
2023-02-14T02:08:51.159Z,34.90
2023-02-14T02:09:02.186Z,45.10
2023-02-14T02:09:13.189Z,50.20
2023-02-14T02:09:24.031Z,50.60
2023-02-14T02:09:34.475Z,42.70
2023-02-14T02:09:45.455Z,38.50
2023-02-14T02:09:56.234Z,38.50
2023-02-14T02:10:07.281Z,33.40
2023-02-14T02:10:18.236Z,28.50
2023-02-14T02:10:29.023Z,26.30
2023-02-14T02:10:40.080Z,25.90
2023-02-14T02:10:51.034Z,26.00
2023-02-14T02:11:02.111Z,26.10
2023-02-14T02:11:12.605Z,26.40
2023-02-14T02:11:23.569Z,26.90
2023-02-14T02:11:34.344Z,26.70
2023-02-14T02:11:45.402Z,26.80
2023-02-14T02:11:56.362Z,27.50
2023-02-14T02:12:07.128Z,27.50
2023-02-14T02:12:18.186Z,26.10
2023-02-14T02:12:30.878Z,26.10
2023-02-14T02:12:40.027Z,27.00
2023-02-14T02:12:51.084Z,29.40
2023-02-14T02:13:02.036Z,40.70
2023-02-14T02:13:12.795Z,52.50
2023-02-14T02:13:23.867Z,72.70
2023-02-14T02:13:34.853Z,59.60
2023-02-14T02:13:45.611Z,54.20
2023-02-14T02:13:56.683Z,54.50
2023-02-14T02:14:07.636Z,62.20
2023-02-14T02:14:18.462Z,57.20
2023-02-14T02:14:28.934Z,50.50
2023-02-14T02:14:39.903Z,42.20
2023-02-14T02:14:50.682Z,38.10
2023-02-14T02:15:01.720Z,39.20
2023-02-14T02:15:12.705Z,44.30
2023-02-14T02:15:23.472Z,75.70
2023-02-14T02:15:34.118Z,82.70
2023-02-14T02:15:45.037Z,66.10
2023-02-14T02:15:55.821Z,39.30
2023-02-14T02:16:06.871Z,29.00
2023-02-14T02:16:17.864Z,26.20
2023-02-14T02:16:28.673Z,22.40
2023-02-14T02:16:39.780Z,22.80
2023-02-14T02:16:50.375Z,22.70
2023-02-14T02:17:01.207Z,23.50
2023-02-14T02:17:11.677Z,31.20
2023-02-14T02:17:22.649Z,35.30
2023-02-14T02:17:33.428Z,37.00
2023-02-14T02:17:44.469Z,30.40
2023-02-14T02:17:55.436Z,23.50
2023-02-14T02:18:06.218Z,22.80
2023-02-14T02:18:17.279Z,22.80
2023-02-14T02:18:28.249Z,24.80
2023-02-14T02:18:39.038Z,24.80
2023-02-14T02:18:50.064Z,24.40
2023-02-14T02:19:01.048Z,24.20
2023-02-14T02:19:11.844Z,24.80
2023-02-14T02:19:22.864Z,23.70
2023-02-14T02:19:33.833Z,23.70
2023-02-14T02:19:44.627Z,24.60
2023-02-14T02:19:55.664Z,31.20
2023-02-14T02:20:06.631Z,40.80
2023-02-14T02:20:17.396Z,52.00
2023-02-14T02:20:28.451Z,46.60